sensor_id;sensor_type;location;lat;lon;timestamp;P1;durP1;ratioP1;P2;durP2;ratioP2
58294;SDS011;45705;55.592;37.460;2023-04-03T00:00:42;17.08;;;8.70;;
58294;SDS011;45705;55.592;37.460;2023-04-03T00:03:07;15.73;;;8.27;;
58294;SDS011;45705;55.592;37.460;2023-04-03T00:05:33;12.68;;;8.38;;
58294;SDS011;45705;55.592;37.460;2023-04-03T00:07:59;16.52;;;8.75;;
58294;SDS011;45705;55.592;37.460;2023-04-03T00:10:27;13.07;;;8.05;;
58294;SDS011;45705;55.592;37.460;2023-04-03T00:12:53;17.42;;;8.90;;
58294;SDS011;45705;55.592;37.460;2023-04-03T00:15:18;13.05;;;7.93;;
58294;SDS011;45705;55.592;37.460;2023-04-03T00:17:44;17.23;;;8.85;;
58294;SDS011;45705;55.592;37.460;2023-04-03T00:20:10;13.80;;;8.75;;
58294;SDS011;45705;55.592;37.460;2023-04-03T00:22:36;14.57;;;9.13;;
58294;SDS011;45705;55.592;37.460;2023-04-03T00:25:02;14.52;;;8.48;;
58294;SDS011;45705;55.592;37.460;2023-04-03T00:27:28;19.05;;;9.07;;
58294;SDS011;45705;55.592;37.460;2023-04-03T00:29:54;17.48;;;9.38;;
58294;SDS011;45705;55.592;37.460;2023-04-03T00:32:21;16.65;;;9.57;;
58294;SDS011;45705;55.592;37.460;2023-04-03T00:34:46;14.68;;;9.40;;
58294;SDS011;45705;55.592;37.460;2023-04-03T00:37:12;17.92;;;9.00;;
58294;SDS011;45705;55.592;37.460;2023-04-03T00:39:38;15.32;;;10.00;;
58294;SDS011;45705;55.592;37.460;2023-04-03T00:42:04;16.80;;;9.48;;
58294;SDS011;45705;55.592;37.460;2023-04-03T00:46:58;19.60;;;9.95;;
58294;SDS011;45705;55.592;37.460;2023-04-03T00:49:26;17.38;;;10.73;;
58294;SDS011;45705;55.592;37.460;2023-04-03T00:51:53;18.75;;;10.10;;
58294;SDS011;45705;55.592;37.460;2023-04-03T00:54:19;17.90;;;10.60;;
58294;SDS011;45705;55.592;37.460;2023-04-03T00:56:45;13.48;;;10.00;;
58294;SDS011;45705;55.592;37.460;2023-04-03T00:59:12;16.23;;;9.60;;
58294;SDS011;45705;55.592;37.460;2023-04-03T01:01:46;16.77;;;10.60;;
58294;SDS011;45705;55.592;37.460;2023-04-03T01:06:59;15.63;;;10.35;;
58294;SDS011;45705;55.592;37.460;2023-04-03T01:09:29;20.55;;;10.77;;
58294;SDS011;45705;55.592;37.460;2023-04-03T01:12:12;18.52;;;9.85;;
58294;SDS011;45705;55.592;37.460;2023-04-03T01:14:59;19.98;;;10.07;;
58294;SDS011;45705;55.592;37.460;2023-04-03T01:25:28;20.73;;;10.30;;
58294;SDS011;45705;55.592;37.460;2023-04-03T01:27:55;18.23;;;10.85;;
58294;SDS011;45705;55.592;37.460;2023-04-03T01:30:21;17.05;;;10.05;;
58294;SDS011;45705;55.592;37.460;2023-04-03T01:32:53;18.25;;;10.20;;
58294;SDS011;45705;55.592;37.460;2023-04-03T01:35:19;15.40;;;9.77;;
58294;SDS011;45705;55.592;37.460;2023-04-03T01:37:45;16.17;;;9.88;;
58294;SDS011;45705;55.592;37.460;2023-04-03T01:40:10;16.60;;;10.07;;
58294;SDS011;45705;55.592;37.460;2023-04-03T01:42:37;14.95;;;9.43;;
58294;SDS011;45705;55.592;37.460;2023-04-03T01:45:04;18.33;;;9.80;;
58294;SDS011;45705;55.592;37.460;2023-04-03T01:47:30;16.23;;;10.00;;
58294;SDS011;45705;55.592;37.460;2023-04-03T01:49:56;18.05;;;10.43;;
58294;SDS011;45705;55.592;37.460;2023-04-03T01:52:21;17.80;;;10.10;;
58294;SDS011;45705;55.592;37.460;2023-04-03T01:54:47;15.57;;;9.38;;
58294;SDS011;45705;55.592;37.460;2023-04-03T01:57:13;17.65;;;10.20;;
58294;SDS011;45705;55.592;37.460;2023-04-03T01:59:40;21.70;;;11.00;;
58294;SDS011;45705;55.592;37.460;2023-04-03T02:02:06;22.42;;;11.48;;
58294;SDS011;45705;55.592;37.460;2023-04-03T02:04:32;20.90;;;12.63;;
58294;SDS011;45705;55.592;37.460;2023-04-03T02:06:58;24.33;;;11.85;;
58294;SDS011;45705;55.592;37.460;2023-04-03T02:09:24;18.27;;;11.77;;
58294;SDS011;45705;55.592;37.460;2023-04-03T02:11:51;18.92;;;12.90;;
58294;SDS011;45705;55.592;37.460;2023-04-03T02:14:18;17.52;;;11.13;;
58294;SDS011;45705;55.592;37.460;2023-04-03T02:17:04;21.90;;;11.07;;
58294;SDS011;45705;55.592;37.460;2023-04-03T02:19:34;15.75;;;11.63;;
58294;SDS011;45705;55.592;37.460;2023-04-03T02:22:02;21.67;;;11.35;;
58294;SDS011;45705;55.592;37.460;2023-04-03T02:24:29;20.87;;;11.67;;
58294;SDS011;45705;55.592;37.460;2023-04-03T02:26:55;18.23;;;12.43;;
58294;SDS011;45705;55.592;37.460;2023-04-03T02:29:21;21.45;;;11.52;;
58294;SDS011;45705;55.592;37.460;2023-04-03T02:31:47;18.42;;;10.88;;
58294;SDS011;45705;55.592;37.460;2023-04-03T02:34:13;19.95;;;11.10;;
58294;SDS011;45705;55.592;37.460;2023-04-03T02:36:39;18.25;;;10.88;;
58294;SDS011;45705;55.592;37.460;2023-04-03T02:39:08;19.17;;;9.93;;
58294;SDS011;45705;55.592;37.460;2023-04-03T02:41:34;17.45;;;10.70;;
58294;SDS011;45705;55.592;37.460;2023-04-03T02:44:02;16.45;;;10.10;;
58294;SDS011;45705;55.592;37.460;2023-04-03T02:46:31;15.20;;;10.45;;
58294;SDS011;45705;55.592;37.460;2023-04-03T02:48:57;20.25;;;10.65;;
58294;SDS011;45705;55.592;37.460;2023-04-03T02:51:23;15.70;;;11.20;;
58294;SDS011;45705;55.592;37.460;2023-04-03T02:53:50;17.48;;;10.38;;
58294;SDS011;45705;55.592;37.460;2023-04-03T02:56:20;18.30;;;11.20;;
58294;SDS011;45705;55.592;37.460;2023-04-03T02:58:46;15.68;;;10.93;;
58294;SDS011;45705;55.592;37.460;2023-04-03T03:01:12;19.08;;;10.88;;
58294;SDS011;45705;55.592;37.460;2023-04-03T03:03:38;19.05;;;10.70;;
58294;SDS011;45705;55.592;37.460;2023-04-03T03:06:05;14.18;;;9.65;;
58294;SDS011;45705;55.592;37.460;2023-04-03T03:08:33;17.90;;;10.32;;
58294;SDS011;45705;55.592;37.460;2023-04-03T03:11:00;18.33;;;10.77;;
58294;SDS011;45705;55.592;37.460;2023-04-03T03:13:27;17.55;;;11.25;;
58294;SDS011;45705;55.592;37.460;2023-04-03T03:15:52;18.20;;;11.27;;
58294;SDS011;45705;55.592;37.460;2023-04-03T03:18:18;18.58;;;10.90;;
58294;SDS011;45705;55.592;37.460;2023-04-03T03:20:44;16.70;;;11.10;;
58294;SDS011;45705;55.592;37.460;2023-04-03T03:23:10;15.77;;;10.82;;
58294;SDS011;45705;55.592;37.460;2023-04-03T03:25:40;16.45;;;10.30;;
58294;SDS011;45705;55.592;37.460;2023-04-03T03:28:07;22.98;;;11.50;;
58294;SDS011;45705;55.592;37.460;2023-04-03T03:30:33;23.05;;;11.40;;
58294;SDS011;45705;55.592;37.460;2023-04-03T03:33:00;19.35;;;11.18;;
58294;SDS011;45705;55.592;37.460;2023-04-03T03:35:26;18.17;;;10.82;;
58294;SDS011;45705;55.592;37.460;2023-04-03T03:37:52;20.60;;;11.93;;
58294;SDS011;45705;55.592;37.460;2023-04-03T03:40:18;20.15;;;12.02;;
58294;SDS011;45705;55.592;37.460;2023-04-03T03:42:44;20.52;;;11.77;;
58294;SDS011;45705;55.592;37.460;2023-04-03T03:45:10;15.13;;;10.70;;
58294;SDS011;45705;55.592;37.460;2023-04-03T03:47:36;21.02;;;12.30;;
58294;SDS011;45705;55.592;37.460;2023-04-03T03:50:02;20.88;;;11.95;;
58294;SDS011;45705;55.592;37.460;2023-04-03T03:52:28;18.38;;;11.63;;
58294;SDS011;45705;55.592;37.460;2023-04-03T03:54:55;21.02;;;12.18;;
58294;SDS011;45705;55.592;37.460;2023-04-03T03:57:21;24.55;;;12.32;;
58294;SDS011;45705;55.592;37.460;2023-04-03T03:59:48;21.48;;;11.73;;
58294;SDS011;45705;55.592;37.460;2023-04-03T04:02:16;20.15;;;12.10;;
58294;SDS011;45705;55.592;37.460;2023-04-03T04:04:42;18.83;;;11.48;;
58294;SDS011;45705;55.592;37.460;2023-04-03T04:07:09;20.27;;;12.18;;
58294;SDS011;45705;55.592;37.460;2023-04-03T04:09:35;18.23;;;11.90;;
58294;SDS011;45705;55.592;37.460;2023-04-03T04:12:01;17.90;;;11.93;;
58294;SDS011;45705;55.592;37.460;2023-04-03T04:14:29;21.45;;;11.45;;
58294;SDS011;45705;55.592;37.460;2023-04-03T04:16:55;23.75;;;12.68;;
58294;SDS011;45705;55.592;37.460;2023-04-03T04:19:24;18.23;;;12.00;;
58294;SDS011;45705;55.592;37.460;2023-04-03T04:21:50;20.85;;;12.23;;
58294;SDS011;45705;55.592;37.460;2023-04-03T04:24:16;25.83;;;12.38;;
58294;SDS011;45705;55.592;37.460;2023-04-03T04:26:41;20.13;;;12.65;;
58294;SDS011;45705;55.592;37.460;2023-04-03T04:29:10;25.80;;;13.95;;
58294;SDS011;45705;55.592;37.460;2023-04-03T04:31:36;23.75;;;13.15;;
58294;SDS011;45705;55.592;37.460;2023-04-03T04:34:03;18.42;;;12.90;;
58294;SDS011;45705;55.592;37.460;2023-04-03T04:36:28;24.70;;;13.60;;
58294;SDS011;45705;55.592;37.460;2023-04-03T04:38:54;23.67;;;13.70;;
58294;SDS011;45705;55.592;37.460;2023-04-03T04:41:22;27.15;;;13.63;;
58294;SDS011;45705;55.592;37.460;2023-04-03T04:43:49;22.80;;;13.43;;
58294;SDS011;45705;55.592;37.460;2023-04-03T04:46:16;23.83;;;13.77;;
58294;SDS011;45705;55.592;37.460;2023-04-03T04:48:47;27.08;;;13.85;;
58294;SDS011;45705;55.592;37.460;2023-04-03T04:51:15;24.90;;;14.45;;
58294;SDS011;45705;55.592;37.460;2023-04-03T04:53:41;26.38;;;15.07;;
58294;SDS011;45705;55.592;37.460;2023-04-03T04:56:10;26.15;;;14.75;;
58294;SDS011;45705;55.592;37.460;2023-04-03T04:58:37;31.85;;;14.85;;
58294;SDS011;45705;55.592;37.460;2023-04-03T05:01:07;28.65;;;14.85;;
58294;SDS011;45705;55.592;37.460;2023-04-03T05:03:39;27.00;;;13.55;;
58294;SDS011;45705;55.592;37.460;2023-04-03T05:06:05;25.92;;;14.57;;
58294;SDS011;45705;55.592;37.460;2023-04-03T05:08:33;25.15;;;14.18;;
58294;SDS011;45705;55.592;37.460;2023-04-03T05:11:00;30.73;;;16.55;;
58294;SDS011;45705;55.592;37.460;2023-04-03T05:13:27;33.70;;;15.27;;
58294;SDS011;45705;55.592;37.460;2023-04-03T05:15:55;29.30;;;15.37;;
58294;SDS011;45705;55.592;37.460;2023-04-03T05:18:21;30.98;;;14.82;;
58294;SDS011;45705;55.592;37.460;2023-04-03T05:20:48;23.45;;;13.85;;
58294;SDS011;45705;55.592;37.460;2023-04-03T05:23:16;33.22;;;13.93;;
58294;SDS011;45705;55.592;37.460;2023-04-03T05:25:44;29.30;;;14.15;;
58294;SDS011;45705;55.592;37.460;2023-04-03T05:28:12;27.40;;;13.63;;
58294;SDS011;45705;55.592;37.460;2023-04-03T05:30:38;23.08;;;14.02;;
58294;SDS011;45705;55.592;37.460;2023-04-03T05:33:04;35.42;;;14.50;;
58294;SDS011;45705;55.592;37.460;2023-04-03T05:35:37;31.83;;;14.52;;
58294;SDS011;45705;55.592;37.460;2023-04-03T05:38:10;29.17;;;14.50;;
58294;SDS011;45705;55.592;37.460;2023-04-03T05:40:36;27.30;;;14.02;;
58294;SDS011;45705;55.592;37.460;2023-04-03T05:43:02;31.90;;;14.65;;
58294;SDS011;45705;55.592;37.460;2023-04-03T05:45:32;23.52;;;13.90;;
58294;SDS011;45705;55.592;37.460;2023-04-03T05:47:58;33.95;;;15.75;;
58294;SDS011;45705;55.592;37.460;2023-04-03T05:50:24;29.73;;;14.73;;
58294;SDS011;45705;55.592;37.460;2023-04-03T05:52:52;29.10;;;14.85;;
58294;SDS011;45705;55.592;37.460;2023-04-03T05:55:22;28.33;;;13.80;;
58294;SDS011;45705;55.592;37.460;2023-04-03T05:57:48;28.90;;;14.38;;
58294;SDS011;45705;55.592;37.460;2023-04-03T06:00:15;29.30;;;14.35;;
58294;SDS011;45705;55.592;37.460;2023-04-03T06:02:46;30.65;;;14.82;;
58294;SDS011;45705;55.592;37.460;2023-04-03T06:05:17;29.25;;;14.70;;
58294;SDS011;45705;55.592;37.460;2023-04-03T06:07:43;23.52;;;14.05;;
58294;SDS011;45705;55.592;37.460;2023-04-03T06:10:11;25.75;;;15.13;;
58294;SDS011;45705;55.592;37.460;2023-04-03T06:12:38;24.30;;;13.68;;
58294;SDS011;45705;55.592;37.460;2023-04-03T06:15:04;25.77;;;14.63;;
58294;SDS011;45705;55.592;37.460;2023-04-03T06:17:31;26.67;;;14.27;;
58294;SDS011;45705;55.592;37.460;2023-04-03T06:19:57;27.90;;;14.82;;
58294;SDS011;45705;55.592;37.460;2023-04-03T06:22:24;37.35;;;14.10;;
58294;SDS011;45705;55.592;37.460;2023-04-03T06:24:51;26.35;;;13.95;;
58294;SDS011;45705;55.592;37.460;2023-04-03T06:27:16;26.58;;;13.52;;
58294;SDS011;45705;55.592;37.460;2023-04-03T06:29:42;21.15;;;14.00;;
58294;SDS011;45705;55.592;37.460;2023-04-03T06:32:10;25.10;;;14.30;;
58294;SDS011;45705;55.592;37.460;2023-04-03T06:34:36;29.77;;;14.60;;
58294;SDS011;45705;55.592;37.460;2023-04-03T06:37:02;30.52;;;13.35;;
58294;SDS011;45705;55.592;37.460;2023-04-03T06:39:27;26.10;;;13.75;;
58294;SDS011;45705;55.592;37.460;2023-04-03T06:41:53;24.00;;;14.07;;
58294;SDS011;45705;55.592;37.460;2023-04-03T06:44:27;23.13;;;13.40;;
58294;SDS011;45705;55.592;37.460;2023-04-03T06:46:53;23.00;;;13.10;;
58294;SDS011;45705;55.592;37.460;2023-04-03T06:49:19;25.08;;;13.70;;
58294;SDS011;45705;55.592;37.460;2023-04-03T06:51:45;30.45;;;14.55;;
58294;SDS011;45705;55.592;37.460;2023-04-03T06:54:11;27.45;;;14.00;;
58294;SDS011;45705;55.592;37.460;2023-04-03T06:56:36;23.30;;;13.65;;
58294;SDS011;45705;55.592;37.460;2023-04-03T06:59:02;26.70;;;13.40;;
58294;SDS011;45705;55.592;37.460;2023-04-03T07:01:28;24.88;;;13.55;;
58294;SDS011;45705;55.592;37.460;2023-04-03T07:03:55;25.05;;;14.10;;
58294;SDS011;45705;55.592;37.460;2023-04-03T07:06:21;29.05;;;13.45;;
58294;SDS011;45705;55.592;37.460;2023-04-03T07:08:47;33.40;;;14.00;;
58294;SDS011;45705;55.592;37.460;2023-04-03T07:13:42;25.50;;;13.38;;
58294;SDS011;45705;55.592;37.460;2023-04-03T07:16:08;23.65;;;13.30;;
58294;SDS011;45705;55.592;37.460;2023-04-03T07:18:34;25.23;;;13.43;;
58294;SDS011;45705;55.592;37.460;2023-04-03T07:21:00;20.13;;;13.05;;
58294;SDS011;45705;55.592;37.460;2023-04-03T07:23:26;22.95;;;12.70;;
58294;SDS011;45705;55.592;37.460;2023-04-03T07:25:52;26.80;;;12.55;;
58294;SDS011;45705;55.592;37.460;2023-04-03T07:28:19;22.52;;;12.27;;
58294;SDS011;45705;55.592;37.460;2023-04-03T07:30:50;24.63;;;12.98;;
58294;SDS011;45705;55.592;37.460;2023-04-03T07:33:25;24.92;;;11.80;;
58294;SDS011;45705;55.592;37.460;2023-04-03T07:35:51;28.13;;;12.73;;
58294;SDS011;45705;55.592;37.460;2023-04-03T07:38:17;25.48;;;11.32;;
58294;SDS011;45705;55.592;37.460;2023-04-03T07:40:49;20.77;;;11.30;;
58294;SDS011;45705;55.592;37.460;2023-04-03T07:43:18;26.42;;;9.70;;
58294;SDS011;45705;55.592;37.460;2023-04-03T07:45:45;24.05;;;10.73;;
58294;SDS011;45705;55.592;37.460;2023-04-03T07:48:15;17.23;;;9.75;;
58294;SDS011;45705;55.592;37.460;2023-04-03T07:50:42;21.92;;;10.77;;
58294;SDS011;45705;55.592;37.460;2023-04-03T07:53:09;18.67;;;9.98;;
58294;SDS011;45705;55.592;37.460;2023-04-03T07:55:35;19.15;;;10.35;;
58294;SDS011;45705;55.592;37.460;2023-04-03T07:58:05;18.33;;;8.48;;
58294;SDS011;45705;55.592;37.460;2023-04-03T08:00:31;20.48;;;10.15;;
58294;SDS011;45705;55.592;37.460;2023-04-03T08:02:57;23.30;;;10.75;;
58294;SDS011;45705;55.592;37.460;2023-04-03T08:05:23;17.30;;;10.82;;
58294;SDS011;45705;55.592;37.460;2023-04-03T08:07:48;19.48;;;10.95;;
58294;SDS011;45705;55.592;37.460;2023-04-03T08:10:14;31.42;;;11.50;;
58294;SDS011;45705;55.592;37.460;2023-04-03T08:12:40;28.63;;;11.73;;
58294;SDS011;45705;55.592;37.460;2023-04-03T08:15:07;25.83;;;13.35;;
58294;SDS011;45705;55.592;37.460;2023-04-03T08:17:33;21.52;;;13.45;;
58294;SDS011;45705;55.592;37.460;2023-04-03T08:20:00;30.50;;;13.35;;
58294;SDS011;45705;55.592;37.460;2023-04-03T08:22:26;33.42;;;15.50;;
58294;SDS011;45705;55.592;37.460;2023-04-03T08:24:51;27.55;;;14.70;;
58294;SDS011;45705;55.592;37.460;2023-04-03T08:27:17;38.88;;;16.17;;
58294;SDS011;45705;55.592;37.460;2023-04-03T08:29:43;30.10;;;15.15;;
58294;SDS011;45705;55.592;37.460;2023-04-03T08:32:08;33.58;;;14.75;;
58294;SDS011;45705;55.592;37.460;2023-04-03T08:34:34;40.50;;;16.60;;
58294;SDS011;45705;55.592;37.460;2023-04-03T08:37:02;38.38;;;15.93;;
58294;SDS011;45705;55.592;37.460;2023-04-03T08:39:27;30.98;;;15.60;;
58294;SDS011;45705;55.592;37.460;2023-04-03T08:41:55;35.78;;;16.23;;
58294;SDS011;45705;55.592;37.460;2023-04-03T08:49:26;31.08;;;14.40;;
58294;SDS011;45705;55.592;37.460;2023-04-03T08:51:54;25.00;;;14.77;;
58294;SDS011;45705;55.592;37.460;2023-04-03T08:54:30;28.52;;;14.82;;
58294;SDS011;45705;55.592;37.460;2023-04-03T08:57:05;25.75;;;14.73;;
58294;SDS011;45705;55.592;37.460;2023-04-03T08:59:34;28.48;;;15.30;;
58294;SDS011;45705;55.592;37.460;2023-04-03T09:02:03;29.45;;;14.77;;
58294;SDS011;45705;55.592;37.460;2023-04-03T09:04:48;24.77;;;14.85;;
58294;SDS011;45705;55.592;37.460;2023-04-03T09:07:16;23.75;;;14.30;;
58294;SDS011;45705;55.592;37.460;2023-04-03T09:09:59;27.27;;;14.88;;
58294;SDS011;45705;55.592;37.460;2023-04-03T09:12:33;28.77;;;15.75;;
58294;SDS011;45705;55.592;37.460;2023-04-03T09:15:23;30.33;;;14.48;;
58294;SDS011;45705;55.592;37.460;2023-04-03T09:18:03;29.73;;;15.57;;
58294;SDS011;45705;55.592;37.460;2023-04-03T09:23:22;21.88;;;14.25;;
58294;SDS011;45705;55.592;37.460;2023-04-03T09:25:50;28.95;;;15.38;;
58294;SDS011;45705;55.592;37.460;2023-04-03T09:28:19;30.17;;;14.32;;
58294;SDS011;45705;55.592;37.460;2023-04-03T09:30:45;32.15;;;15.38;;
58294;SDS011;45705;55.592;37.460;2023-04-03T09:33:11;23.17;;;14.98;;
58294;SDS011;45705;55.592;37.460;2023-04-03T09:35:39;27.85;;;14.70;;
58294;SDS011;45705;55.592;37.460;2023-04-03T09:41:17;29.13;;;16.20;;
58294;SDS011;45705;55.592;37.460;2023-04-03T09:43:30;27.58;;;15.05;;
58294;SDS011;45705;55.592;37.460;2023-04-03T09:48:55;21.48;;;12.45;;
58294;SDS011;45705;55.592;37.460;2023-04-03T09:51:29;19.67;;;11.23;;
58294;SDS011;45705;55.592;37.460;2023-04-03T09:53:56;15.98;;;11.25;;
58294;SDS011;45705;55.592;37.460;2023-04-03T09:56:29;21.48;;;11.85;;
58294;SDS011;45705;55.592;37.460;2023-04-03T10:01:33;22.50;;;12.23;;
58294;SDS011;45705;55.592;37.460;2023-04-03T10:06:35;28.42;;;11.15;;
58294;SDS011;45705;55.592;37.460;2023-04-03T10:09:25;24.38;;;13.13;;
58294;SDS011;45705;55.592;37.460;2023-04-03T10:14:26;29.30;;;14.90;;
58294;SDS011;45705;55.592;37.460;2023-04-03T10:22:20;27.05;;;14.07;;
58294;SDS011;45705;55.592;37.460;2023-04-03T10:47:16;31.05;;;13.60;;
58294;SDS011;45705;55.592;37.460;2023-04-03T10:52:22;27.02;;;13.10;;
58294;SDS011;45705;55.592;37.460;2023-04-03T10:58:02;24.90;;;11.60;;
58294;SDS011;45705;55.592;37.460;2023-04-03T11:03:14;28.92;;;11.68;;
58294;SDS011;45705;55.592;37.460;2023-04-03T11:05:51;18.10;;;11.55;;
58294;SDS011;45705;55.592;37.460;2023-04-03T11:11:13;30.38;;;13.57;;
58294;SDS011;45705;55.592;37.460;2023-04-03T11:13:48;28.30;;;14.23;;
58294;SDS011;45705;55.592;37.460;2023-04-03T11:16:24;56.40;;;15.68;;
58294;SDS011;45705;55.592;37.460;2023-04-03T11:18:58;28.92;;;13.38;;
58294;SDS011;45705;55.592;37.460;2023-04-03T11:21:38;32.20;;;13.77;;
58294;SDS011;45705;55.592;37.460;2023-04-03T11:24:27;29.52;;;13.55;;
58294;SDS011;45705;55.592;37.460;2023-04-03T11:26:56;31.85;;;13.05;;
58294;SDS011;45705;55.592;37.460;2023-04-03T11:29:30;38.70;;;13.38;;
58294;SDS011;45705;55.592;37.460;2023-04-03T11:35:02;43.45;;;16.27;;
58294;SDS011;45705;55.592;37.460;2023-04-03T11:37:39;25.70;;;13.70;;
58294;SDS011;45705;55.592;37.460;2023-04-03T11:43:06;26.25;;;13.82;;
58294;SDS011;45705;55.592;37.460;2023-04-03T11:45:50;31.73;;;13.95;;
58294;SDS011;45705;55.592;37.460;2023-04-03T11:53:53;22.95;;;12.50;;
58294;SDS011;45705;55.592;37.460;2023-04-03T12:04:19;24.52;;;11.65;;
58294;SDS011;45705;55.592;37.460;2023-04-03T12:11:53;18.25;;;10.07;;
58294;SDS011;45705;55.592;37.460;2023-04-03T12:14:21;19.48;;;10.23;;
58294;SDS011;45705;55.592;37.460;2023-04-03T12:16:50;15.85;;;8.38;;
58294;SDS011;45705;55.592;37.460;2023-04-03T12:19:32;13.00;;;8.85;;
58294;SDS011;45705;55.592;37.460;2023-04-03T12:27:09;15.88;;;8.52;;
58294;SDS011;45705;55.592;37.460;2023-04-03T12:30:22;15.07;;;8.30;;
58294;SDS011;45705;55.592;37.460;2023-04-03T12:46:38;19.05;;;8.80;;
58294;SDS011;45705;55.592;37.460;2023-04-03T12:51:54;15.30;;;8.25;;
58294;SDS011;45705;55.592;37.460;2023-04-03T12:59:44;21.27;;;7.97;;
58294;SDS011;45705;55.592;37.460;2023-04-03T13:04:54;19.20;;;7.75;;
58294;SDS011;45705;55.592;37.460;2023-04-03T13:07:33;20.45;;;8.05;;
58294;SDS011;45705;55.592;37.460;2023-04-03T13:12:33;17.50;;;8.50;;
58294;SDS011;45705;55.592;37.460;2023-04-03T13:15:12;15.65;;;7.50;;
58294;SDS011;45705;55.592;37.460;2023-04-03T13:17:41;17.58;;;9.30;;
58294;SDS011;45705;55.592;37.460;2023-04-03T13:20:17;13.23;;;7.25;;
58294;SDS011;45705;55.592;37.460;2023-04-03T13:23:04;17.80;;;7.40;;
58294;SDS011;45705;55.592;37.460;2023-04-03T13:25:35;17.23;;;7.72;;
58294;SDS011;45705;55.592;37.460;2023-04-03T13:28:05;15.77;;;7.65;;
58294;SDS011;45705;55.592;37.460;2023-04-03T13:30:36;16.70;;;7.78;;
58294;SDS011;45705;55.592;37.460;2023-04-03T13:33:04;18.10;;;8.68;;
58294;SDS011;45705;55.592;37.460;2023-04-03T13:35:39;20.85;;;7.78;;
58294;SDS011;45705;55.592;37.460;2023-04-03T13:38:29;17.42;;;8.10;;
58294;SDS011;45705;55.592;37.460;2023-04-03T13:40:58;24.08;;;8.32;;
58294;SDS011;45705;55.592;37.460;2023-04-03T13:43:27;20.45;;;8.60;;
58294;SDS011;45705;55.592;37.460;2023-04-03T13:48:39;16.85;;;8.80;;
58294;SDS011;45705;55.592;37.460;2023-04-03T13:53:41;16.85;;;9.52;;
58294;SDS011;45705;55.592;37.460;2023-04-03T13:56:53;16.67;;;9.07;;
58294;SDS011;45705;55.592;37.460;2023-04-03T13:59:19;16.80;;;9.00;;
58294;SDS011;45705;55.592;37.460;2023-04-03T14:01:47;23.17;;;8.60;;
58294;SDS011;45705;55.592;37.460;2023-04-03T14:04:26;14.38;;;8.70;;
58294;SDS011;45705;55.592;37.460;2023-04-03T14:06:55;22.25;;;9.85;;
58294;SDS011;45705;55.592;37.460;2023-04-03T14:09:21;18.55;;;9.43;;
58294;SDS011;45705;55.592;37.460;2023-04-03T14:11:49;14.23;;;9.38;;
58294;SDS011;45705;55.592;37.460;2023-04-03T14:14:20;20.67;;;9.65;;
58294;SDS011;45705;55.592;37.460;2023-04-03T14:16:59;16.23;;;9.32;;
58294;SDS011;45705;55.592;37.460;2023-04-03T14:19:28;15.18;;;9.70;;
58294;SDS011;45705;55.592;37.460;2023-04-03T14:21:57;19.60;;;9.13;;
58294;SDS011;45705;55.592;37.460;2023-04-03T14:24:24;18.25;;;9.27;;
58294;SDS011;45705;55.592;37.460;2023-04-03T14:26:51;24.33;;;8.90;;
58294;SDS011;45705;55.592;37.460;2023-04-03T14:29:18;15.00;;;8.52;;
58294;SDS011;45705;55.592;37.460;2023-04-03T14:31:46;18.15;;;8.45;;
58294;SDS011;45705;55.592;37.460;2023-04-03T14:34:13;12.95;;;7.45;;
58294;SDS011;45705;55.592;37.460;2023-04-03T14:36:40;13.02;;;7.40;;
58294;SDS011;45705;55.592;37.460;2023-04-03T14:39:10;16.75;;;8.35;;
58294;SDS011;45705;55.592;37.460;2023-04-03T14:41:42;16.75;;;8.15;;
58294;SDS011;45705;55.592;37.460;2023-04-03T14:44:09;16.38;;;7.30;;
58294;SDS011;45705;55.592;37.460;2023-04-03T14:46:36;14.68;;;7.28;;
58294;SDS011;45705;55.592;37.460;2023-04-03T14:49:09;23.35;;;8.05;;
58294;SDS011;45705;55.592;37.460;2023-04-03T14:51:39;15.60;;;7.75;;
58294;SDS011;45705;55.592;37.460;2023-04-03T14:54:05;14.20;;;7.68;;
58294;SDS011;45705;55.592;37.460;2023-04-03T14:59:12;23.98;;;8.77;;
58294;SDS011;45705;55.592;37.460;2023-04-03T15:01:39;17.50;;;8.75;;
58294;SDS011;45705;55.592;37.460;2023-04-03T15:04:13;13.52;;;8.30;;
58294;SDS011;45705;55.592;37.460;2023-04-03T15:06:40;20.33;;;9.15;;
58294;SDS011;45705;55.592;37.460;2023-04-03T15:09:11;26.90;;;10.88;;
58294;SDS011;45705;55.592;37.460;2023-04-03T15:11:44;18.67;;;9.40;;
58294;SDS011;45705;55.592;37.460;2023-04-03T15:14:10;18.98;;;8.63;;
58294;SDS011;45705;55.592;37.460;2023-04-03T15:16:36;26.00;;;9.15;;
58294;SDS011;45705;55.592;37.460;2023-04-03T15:19:01;19.80;;;9.30;;
58294;SDS011;45705;55.592;37.460;2023-04-03T15:21:28;19.70;;;8.30;;
58294;SDS011;45705;55.592;37.460;2023-04-03T15:23:53;24.83;;;8.90;;
58294;SDS011;45705;55.592;37.460;2023-04-03T15:26:19;19.30;;;8.73;;
58294;SDS011;45705;55.592;37.460;2023-04-03T15:28:45;21.45;;;8.68;;
58294;SDS011;45705;55.592;37.460;2023-04-03T15:31:11;23.15;;;9.05;;
58294;SDS011;45705;55.592;37.460;2023-04-03T15:33:39;15.73;;;8.90;;
58294;SDS011;45705;55.592;37.460;2023-04-03T15:36:07;22.60;;;9.47;;
58294;SDS011;45705;55.592;37.460;2023-04-03T15:38:33;17.10;;;9.50;;
58294;SDS011;45705;55.592;37.460;2023-04-03T15:41:01;17.98;;;8.75;;
58294;SDS011;45705;55.592;37.460;2023-04-03T15:43:27;15.50;;;8.07;;
58294;SDS011;45705;55.592;37.460;2023-04-03T15:45:54;15.00;;;7.88;;
58294;SDS011;45705;55.592;37.460;2023-04-03T15:48:23;22.02;;;8.80;;
58294;SDS011;45705;55.592;37.460;2023-04-03T15:50:50;15.88;;;8.90;;
58294;SDS011;45705;55.592;37.460;2023-04-03T15:53:16;19.63;;;9.02;;
58294;SDS011;45705;55.592;37.460;2023-04-03T15:55:42;24.67;;;8.35;;
58294;SDS011;45705;55.592;37.460;2023-04-03T15:58:08;21.38;;;8.52;;
58294;SDS011;45705;55.592;37.460;2023-04-03T16:00:34;20.08;;;9.40;;
58294;SDS011;45705;55.592;37.460;2023-04-03T16:03:04;20.52;;;9.30;;
58294;SDS011;45705;55.592;37.460;2023-04-03T16:05:34;20.25;;;8.85;;
58294;SDS011;45705;55.592;37.460;2023-04-03T16:08:01;23.30;;;9.15;;
58294;SDS011;45705;55.592;37.460;2023-04-03T16:10:27;27.27;;;9.10;;
58294;SDS011;45705;55.592;37.460;2023-04-03T16:12:53;29.30;;;10.27;;
58294;SDS011;45705;55.592;37.460;2023-04-03T16:15:19;26.42;;;9.73;;
58294;SDS011;45705;55.592;37.460;2023-04-03T16:17:44;30.52;;;10.98;;
58294;SDS011;45705;55.592;37.460;2023-04-03T16:20:11;32.15;;;11.23;;
58294;SDS011;45705;55.592;37.460;2023-04-03T16:22:38;25.10;;;10.15;;
58294;SDS011;45705;55.592;37.460;2023-04-03T16:25:05;17.65;;;10.00;;
58294;SDS011;45705;55.592;37.460;2023-04-03T16:27:32;21.80;;;9.95;;
58294;SDS011;45705;55.592;37.460;2023-04-03T16:29:58;29.63;;;10.55;;
58294;SDS011;45705;55.592;37.460;2023-04-03T16:32:24;22.15;;;10.60;;
58294;SDS011;45705;55.592;37.460;2023-04-03T16:34:54;23.30;;;11.30;;
58294;SDS011;45705;55.592;37.460;2023-04-03T16:37:23;19.80;;;10.35;;
58294;SDS011;45705;55.592;37.460;2023-04-03T16:39:49;13.52;;;8.27;;
58294;SDS011;45705;55.592;37.460;2023-04-03T16:42:15;17.58;;;8.75;;